sensor_id;sensor_type;location;lat;lon;timestamp;temperature;humidity
7894;DHT22;51343;51.396;6.656;2022-09-24T00:01:53;13.90;99.90
7894;DHT22;51343;51.396;6.656;2022-09-24T00:04:19;13.90;99.90
7894;DHT22;51343;51.396;6.656;2022-09-24T00:06:50;13.90;99.90
7894;DHT22;51343;51.396;6.656;2022-09-24T00:09:17;13.80;99.90
7894;DHT22;51343;51.396;6.656;2022-09-24T00:11:47;13.80;99.90
7894;DHT22;51343;51.396;6.656;2022-09-24T00:14:15;13.80;99.90
7894;DHT22;51343;51.396;6.656;2022-09-24T00:16:43;13.80;99.90
7894;DHT22;51343;51.396;6.656;2022-09-24T00:19:10;13.70;99.90
7894;DHT22;51343;51.396;6.656;2022-09-24T00:21:38;13.70;99.90
7894;DHT22;51343;51.396;6.656;2022-09-24T00:24:06;13.60;99.90
7894;DHT22;51343;51.396;6.656;2022-09-24T00:26:34;13.60;99.90
7894;DHT22;51343;51.396;6.656;2022-09-24T00:29:17;13.60;99.90
7894;DHT22;51343;51.396;6.656;2022-09-24T00:31:44;13.50;99.90
7894;DHT22;51343;51.396;6.656;2022-09-24T00:34:11;13.50;99.90
7894;DHT22;51343;51.396;6.656;2022-09-24T00:36:37;13.40;99.90
7894;DHT22;51343;51.396;6.656;2022-09-24T00:39:04;13.40;99.90
7894;DHT22;51343;51.396;6.656;2022-09-24T00:41:32;13.40;99.90
7894;DHT22;51343;51.396;6.656;2022-09-24T00:43:59;13.30;99.90
7894;DHT22;51343;51.396;6.656;2022-09-24T00:46:28;13.40;99.90
7894;DHT22;51343;51.396;6.656;2022-09-24T00:48:56;13.40;99.90
7894;DHT22;51343;51.396;6.656;2022-09-24T00:51:24;13.40;99.90
7894;DHT22;51343;51.396;6.656;2022-09-24T00:53:53;13.40;99.90
7894;DHT22;51343;51.396;6.656;2022-09-24T00:56:20;13.40;99.90
7894;DHT22;51343;51.396;6.656;2022-09-24T00:58:48;13.40;99.90
7894;DHT22;51343;51.396;6.656;2022-09-24T01:01:16;13.40;99.90
7894;DHT22;51343;51.396;6.656;2022-09-24T01:03:45;13.40;99.90
7894;DHT22;51343;51.396;6.656;2022-09-24T01:06:12;13.40;99.90
7894;DHT22;51343;51.396;6.656;2022-09-24T01:08:39;13.40;99.90
7894;DHT22;51343;51.396;6.656;2022-09-24T01:11:09;13.50;99.90
7894;DHT22;51343;51.396;6.656;2022-09-24T01:16:25;13.40;99.90
7894;DHT22;51343;51.396;6.656;2022-09-24T01:18:57;13.40;99.90
7894;DHT22;51343;51.396;6.656;2022-09-24T01:21:28;13.40;99.90
7894;DHT22;51343;51.396;6.656;2022-09-24T01:24:04;13.40;99.90
7894;DHT22;51343;51.396;6.656;2022-09-24T01:26:37;13.30;99.90
7894;DHT22;51343;51.396;6.656;2022-09-24T01:31:56;13.30;99.90
7894;DHT22;51343;51.396;6.656;2022-09-24T01:34:28;13.30;99.90
7894;DHT22;51343;51.396;6.656;2022-09-24T01:36:55;13.30;99.90
7894;DHT22;51343;51.396;6.656;2022-09-24T01:39:24;13.30;99.90
7894;DHT22;51343;51.396;6.656;2022-09-24T01:41:52;13.30;99.90
7894;DHT22;51343;51.396;6.656;2022-09-24T01:44:19;13.30;99.90
7894;DHT22;51343;51.396;6.656;2022-09-24T01:46:46;13.30;99.90
7894;DHT22;51343;51.396;6.656;2022-09-24T01:49:14;13.30;99.90
7894;DHT22;51343;51.396;6.656;2022-09-24T01:51:42;13.30;99.90
7894;DHT22;51343;51.396;6.656;2022-09-24T01:54:14;13.20;99.90
7894;DHT22;51343;51.396;6.656;2022-09-24T01:56:43;13.20;99.90
7894;DHT22;51343;51.396;6.656;2022-09-24T01:59:11;13.10;99.90
7894;DHT22;51343;51.396;6.656;2022-09-24T02:01:41;13.10;99.90
7894;DHT22;51343;51.396;6.656;2022-09-24T02:04:10;13.10;99.90
7894;DHT22;51343;51.396;6.656;2022-09-24T02:06:41;13.00;99.90
7894;DHT22;51343;51.396;6.656;2022-09-24T02:11:49;13.00;99.90
7894;DHT22;51343;51.396;6.656;2022-09-24T02:14:18;13.00;99.90
7894;DHT22;51343;51.396;6.656;2022-09-24T02:16:45;12.90;99.90
7894;DHT22;51343;51.396;6.656;2022-09-24T02:19:13;13.00;99.90
7894;DHT22;51343;51.396;6.656;2022-09-24T02:21:42;13.00;99.90
7894;DHT22;51343;51.396;6.656;2022-09-24T02:24:11;13.00;99.90
7894;DHT22;51343;51.396;6.656;2022-09-24T02:26:39;13.00;99.90
7894;DHT22;51343;51.396;6.656;2022-09-24T02:29:06;13.00;99.90
7894;DHT22;51343;51.396;6.656;2022-09-24T02:31:34;13.00;99.90
7894;DHT22;51343;51.396;6.656;2022-09-24T02:34:03;13.00;99.90
7894;DHT22;51343;51.396;6.656;2022-09-24T02:36:48;13.10;99.90
7894;DHT22;51343;51.396;6.656;2022-09-24T02:39:15;13.10;99.90
7894;DHT22;51343;51.396;6.656;2022-09-24T02:41:43;13.10;99.90
7894;DHT22;51343;51.396;6.656;2022-09-24T02:44:12;13.10;99.90
7894;DHT22;51343;51.396;6.656;2022-09-24T02:46:39;13.10;99.90
7894;DHT22;51343;51.396;6.656;2022-09-24T02:49:07;13.10;99.90
7894;DHT22;51343;51.396;6.656;2022-09-24T02:51:34;13.10;99.90
7894;DHT22;51343;51.396;6.656;2022-09-24T02:54:02;13.10;99.90
7894;DHT22;51343;51.396;6.656;2022-09-24T02:56:29;13.10;99.90
7894;DHT22;51343;51.396;6.656;2022-09-24T02:58:56;13.10;99.90
7894;DHT22;51343;51.396;6.656;2022-09-24T03:01:23;13.00;99.90
7894;DHT22;51343;51.396;6.656;2022-09-24T03:03:50;13.00;99.90
7894;DHT22;51343;51.396;6.656;2022-09-24T03:06:17;13.00;99.90
7894;DHT22;51343;51.396;6.656;2022-09-24T03:08:43;13.00;99.90
7894;DHT22;51343;51.396;6.656;2022-09-24T03:11:12;13.00;99.90
7894;DHT22;51343;51.396;6.656;2022-09-24T03:13:39;13.00;99.90
7894;DHT22;51343;51.396;6.656;2022-09-24T03:16:06;13.00;99.90
7894;DHT22;51343;51.396;6.656;2022-09-24T03:18:32;13.00;99.90
7894;DHT22;51343;51.396;6.656;2022-09-24T03:21:00;13.00;99.90
7894;DHT22;51343;51.396;6.656;2022-09-24T03:23:27;13.00;99.90
7894;DHT22;51343;51.396;6.656;2022-09-24T03:25:53;13.00;99.90
7894;DHT22;51343;51.396;6.656;2022-09-24T03:28:21;13.00;99.90
7894;DHT22;51343;51.396;6.656;2022-09-24T03:30:48;13.00;99.90
7894;DHT22;51343;51.396;6.656;2022-09-24T03:33:26;13.00;99.90
7894;DHT22;51343;51.396;6.656;2022-09-24T03:35:54;13.00;99.90
7894;DHT22;51343;51.396;6.656;2022-09-24T03:38:20;13.00;99.90
7894;DHT22;51343;51.396;6.656;2022-09-24T03:40:47;13.00;99.90
7894;DHT22;51343;51.396;6.656;2022-09-24T03:43:14;13.00;99.90
7894;DHT22;51343;51.396;6.656;2022-09-24T03:45:42;13.00;99.90
7894;DHT22;51343;51.396;6.656;2022-09-24T03:48:09;13.00;99.90
7894;DHT22;51343;51.396;6.656;2022-09-24T03:50:36;13.00;99.90
7894;DHT22;51343;51.396;6.656;2022-09-24T03:53:03;13.00;99.90
7894;DHT22;51343;51.396;6.656;2022-09-24T03:55:30;13.00;99.90
7894;DHT22;51343;51.396;6.656;2022-09-24T03:57:56;13.00;99.90
7894;DHT22;51343;51.396;6.656;2022-09-24T04:00:23;13.00;99.90
7894;DHT22;51343;51.396;6.656;2022-09-24T04:02:51;13.00;99.90
7894;DHT22;51343;51.396;6.656;2022-09-24T04:05:18;13.00;99.90
7894;DHT22;51343;51.396;6.656;2022-09-24T04:07:45;13.00;99.90
7894;DHT22;51343;51.396;6.656;2022-09-24T04:10:12;13.00;99.90
7894;DHT22;51343;51.396;6.656;2022-09-24T04:12:39;13.00;99.90
7894;DHT22;51343;51.396;6.656;2022-09-24T04:15:08;13.00;99.90
7894;DHT22;51343;51.396;6.656;2022-09-24T04:17:34;13.10;99.90
7894;DHT22;51343;51.396;6.656;2022-09-24T04:20:03;13.10;99.90
7894;DHT22;51343;51.396;6.656;2022-09-24T04:22:29;13.10;99.90
7894;DHT22;51343;51.396;6.656;2022-09-24T04:24:56;13.10;99.90
7894;DHT22;51343;51.396;6.656;2022-09-24T04:27:23;13.10;99.90
7894;DHT22;51343;51.396;6.656;2022-09-24T04:29:49;13.00;99.90
7894;DHT22;51343;51.396;6.656;2022-09-24T04:32:18;13.00;99.90
7894;DHT22;51343;51.396;6.656;2022-09-24T04:34:45;13.00;99.90
7894;DHT22;51343;51.396;6.656;2022-09-24T04:37:12;13.00;99.90
7894;DHT22;51343;51.396;6.656;2022-09-24T04:39:39;13.00;99.90
7894;DHT22;51343;51.396;6.656;2022-09-24T04:42:06;13.00;99.90
7894;DHT22;51343;51.396;6.656;2022-09-24T04:44:33;13.00;99.90
7894;DHT22;51343;51.396;6.656;2022-09-24T04:47:00;12.90;99.90
7894;DHT22;51343;51.396;6.656;2022-09-24T04:49:27;12.90;99.90
7894;DHT22;51343;51.396;6.656;2022-09-24T04:51:54;12.90;99.90
7894;DHT22;51343;51.396;6.656;2022-09-24T04:54:23;12.90;99.90
7894;DHT22;51343;51.396;6.656;2022-09-24T04:56:50;12.90;99.90
7894;DHT22;51343;51.396;6.656;2022-09-24T04:59:17;12.90;99.90
7894;DHT22;51343;51.396;6.656;2022-09-24T05:01:44;12.90;99.90
7894;DHT22;51343;51.396;6.656;2022-09-24T05:04:11;12.90;99.90
7894;DHT22;51343;51.396;6.656;2022-09-24T05:06:38;12.90;99.90
7894;DHT22;51343;51.396;6.656;2022-09-24T05:09:04;12.90;99.90
7894;DHT22;51343;51.396;6.656;2022-09-24T05:11:32;12.90;99.90
7894;DHT22;51343;51.396;6.656;2022-09-24T05:13:59;12.90;99.90
7894;DHT22;51343;51.396;6.656;2022-09-24T05:16:26;12.90;99.90
7894;DHT22;51343;51.396;6.656;2022-09-24T05:18:52;12.90;99.90
7894;DHT22;51343;51.396;6.656;2022-09-24T05:21:20;13.00;99.90
7894;DHT22;51343;51.396;6.656;2022-09-24T05:23:47;13.00;99.90
7894;DHT22;51343;51.396;6.656;2022-09-24T05:26:13;13.00;99.90
7894;DHT22;51343;51.396;6.656;2022-09-24T05:28:59;13.00;99.90
7894;DHT22;51343;51.396;6.656;2022-09-24T05:31:26;13.00;99.90
7894;DHT22;51343;51.396;6.656;2022-09-24T05:33:53;13.00;99.90
7894;DHT22;51343;51.396;6.656;2022-09-24T05:36:19;13.10;99.90
7894;DHT22;51343;51.396;6.656;2022-09-24T05:38:47;13.10;99.90
7894;DHT22;51343;51.396;6.656;2022-09-24T05:41:13;13.00;99.90
7894;DHT22;51343;51.396;6.656;2022-09-24T05:43:40;13.00;99.90
7894;DHT22;51343;51.396;6.656;2022-09-24T05:46:08;13.00;99.90
7894;DHT22;51343;51.396;6.656;2022-09-24T05:48:35;13.00;99.90
7894;DHT22;51343;51.396;6.656;2022-09-24T05:51:01;13.00;99.90
7894;DHT22;51343;51.396;6.656;2022-09-24T05:53:28;13.00;99.90
7894;DHT22;51343;51.396;6.656;2022-09-24T05:55:54;13.00;99.90
7894;DHT22;51343;51.396;6.656;2022-09-24T05:58:21;13.00;99.90
7894;DHT22;51343;51.396;6.656;2022-09-24T06:00:49;13.00;99.90
7894;DHT22;51343;51.396;6.656;2022-09-24T06:03:17;13.10;99.90
7894;DHT22;51343;51.396;6.656;2022-09-24T06:05:45;13.10;99.90
7894;DHT22;51343;51.396;6.656;2022-09-24T06:08:13;13.00;99.90
7894;DHT22;51343;51.396;6.656;2022-09-24T06:10:40;13.00;99.90
7894;DHT22;51343;51.396;6.656;2022-09-24T06:13:07;13.00;99.90
7894;DHT22;51343;51.396;6.656;2022-09-24T06:15:36;13.10;99.90
7894;DHT22;51343;51.396;6.656;2022-09-24T06:18:03;13.00;99.90
7894;DHT22;51343;51.396;6.656;2022-09-24T06:20:31;13.10;99.90
7894;DHT22;51343;51.396;6.656;2022-09-24T06:22:58;13.10;99.90
7894;DHT22;51343;51.396;6.656;2022-09-24T06:25:25;13.10;99.90
7894;DHT22;51343;51.396;6.656;2022-09-24T06:27:52;13.20;99.90
7894;DHT22;51343;51.396;6.656;2022-09-24T06:30:20;13.30;99.90
7894;DHT22;51343;51.396;6.656;2022-09-24T06:32:47;13.30;99.90
7894;DHT22;51343;51.396;6.656;2022-09-24T06:35:15;13.30;99.90
7894;DHT22;51343;51.396;6.656;2022-09-24T06:37:43;13.30;99.90
7894;DHT22;51343;51.396;6.656;2022-09-24T06:40:10;13.30;99.90
7894;DHT22;51343;51.396;6.656;2022-09-24T06:42:36;13.30;99.90
7894;DHT22;51343;51.396;6.656;2022-09-24T06:45:03;13.40;99.90
7894;DHT22;51343;51.396;6.656;2022-09-24T06:47:30;13.40;99.90
7894;DHT22;51343;51.396;6.656;2022-09-24T06:49:57;13.40;99.90
7894;DHT22;51343;51.396;6.656;2022-09-24T06:52:23;13.50;99.90
7894;DHT22;51343;51.396;6.656;2022-09-24T06:54:52;13.50;99.90
7894;DHT22;51343;51.396;6.656;2022-09-24T06:57:20;13.60;99.90
7894;DHT22;51343;51.396;6.656;2022-09-24T06:59:46;13.60;99.90
7894;DHT22;51343;51.396;6.656;2022-09-24T07:02:15;13.60;99.90
7894;DHT22;51343;51.396;6.656;2022-09-24T07:04:41;13.60;99.90
7894;DHT22;51343;51.396;6.656;2022-09-24T07:07:08;13.60;99.90
7894;DHT22;51343;51.396;6.656;2022-09-24T07:09:54;13.60;99.90
7894;DHT22;51343;51.396;6.656;2022-09-24T07:12:20;13.50;99.90
7894;DHT22;51343;51.396;6.656;2022-09-24T07:14:47;13.60;99.90
7894;DHT22;51343;51.396;6.656;2022-09-24T07:17:14;13.50;99.90
7894;DHT22;51343;51.396;6.656;2022-09-24T07:19:41;13.60;99.90
7894;DHT22;51343;51.396;6.656;2022-09-24T07:22:07;13.70;99.90
7894;DHT22;51343;51.396;6.656;2022-09-24T07:24:34;13.70;99.90
7894;DHT22;51343;51.396;6.656;2022-09-24T07:27:04;13.80;99.90
7894;DHT22;51343;51.396;6.656;2022-09-24T07:29:31;13.80;99.90
7894;DHT22;51343;51.396;6.656;2022-09-24T07:31:57;13.70;99.90
7894;DHT22;51343;51.396;6.656;2022-09-24T07:34:24;13.80;99.90
7894;DHT22;51343;51.396;6.656;2022-09-24T07:36:51;13.80;99.90
7894;DHT22;51343;51.396;6.656;2022-09-24T07:39:17;13.80;99.90
7894;DHT22;51343;51.396;6.656;2022-09-24T07:41:44;13.80;99.90
7894;DHT22;51343;51.396;6.656;2022-09-24T07:44:13;13.90;99.90
7894;DHT22;51343;51.396;6.656;2022-09-24T07:46:40;13.90;99.90
7894;DHT22;51343;51.396;6.656;2022-09-24T07:49:07;14.00;99.90
7894;DHT22;51343;51.396;6.656;2022-09-24T07:51:34;14.10;99.90
7894;DHT22;51343;51.396;6.656;2022-09-24T07:54:01;14.20;99.90
7894;DHT22;51343;51.396;6.656;2022-09-24T07:56:27;14.30;99.90
7894;DHT22;51343;51.396;6.656;2022-09-24T07:58:56;14.30;99.90
7894;DHT22;51343;51.396;6.656;2022-09-24T08:01:25;14.40;99.90
7894;DHT22;51343;51.396;6.656;2022-09-24T08:03:52;14.50;99.90
7894;DHT22;51343;51.396;6.656;2022-09-24T08:06:19;14.60;99.90
7894;DHT22;51343;51.396;6.656;2022-09-24T08:08:47;14.80;99.90
7894;DHT22;51343;51.396;6.656;2022-09-24T08:11:14;14.80;99.90
7894;DHT22;51343;51.396;6.656;2022-09-24T08:13:41;14.80;99.90
7894;DHT22;51343;51.396;6.656;2022-09-24T08:16:09;14.80;99.90
7894;DHT22;51343;51.396;6.656;2022-09-24T08:18:38;14.90;99.90
7894;DHT22;51343;51.396;6.656;2022-09-24T08:21:05;15.00;99.90
7894;DHT22;51343;51.396;6.656;2022-09-24T08:23:34;15.20;99.90
7894;DHT22;51343;51.396;6.656;2022-09-24T08:26:00;15.30;99.90
7894;DHT22;51343;51.396;6.656;2022-09-24T08:28:27;15.50;99.90
7894;DHT22;51343;51.396;6.656;2022-09-24T08:30:56;15.50;99.90
7894;DHT22;51343;51.396;6.656;2022-09-24T08:33:23;15.60;99.90
7894;DHT22;51343;51.396;6.656;2022-09-24T08:35:51;15.80;99.90
7894;DHT22;51343;51.396;6.656;2022-09-24T08:38:17;15.80;99.90
7894;DHT22;51343;51.396;6.656;2022-09-24T08:40:48;15.90;99.90
7894;DHT22;51343;51.396;6.656;2022-09-24T08:43:18;15.80;99.90
7894;DHT22;51343;51.396;6.656;2022-09-24T08:45:51;15.80;99.90
7894;DHT22;51343;51.396;6.656;2022-09-24T08:48:37;15.80;99.90
7894;DHT22;51343;51.396;6.656;2022-09-24T08:51:07;15.80;99.90
7894;DHT22;51343;51.396;6.656;2022-09-24T08:53:39;15.80;99.90
7894;DHT22;51343;51.396;6.656;2022-09-24T08:56:08;15.80;99.90
7894;DHT22;51343;51.396;6.656;2022-09-24T08:58:37;15.80;99.90
7894;DHT22;51343;51.396;6.656;2022-09-24T09:01:09;15.90;99.90
7894;DHT22;51343;51.396;6.656;2022-09-24T09:03:40;16.00;99.90
7894;DHT22;51343;51.396;6.656;2022-09-24T09:06:11;16.10;99.90
7894;DHT22;51343;51.396;6.656;2022-09-24T09:08:42;16.10;99.90
7894;DHT22;51343;51.396;6.656;2022-09-24T09:11:10;16.20;99.90
7894;DHT22;51343;51.396;6.656;2022-09-24T09:13:39;16.30;99.90
7894;DHT22;51343;51.396;6.656;2022-09-24T09:16:12;16.40;99.90
7894;DHT22;51343;51.396;6.656;2022-09-24T09:18:40;16.20;99.90
7894;DHT22;51343;51.396;6.656;2022-09-24T09:21:12;16.10;99.90
7894;DHT22;51343;51.396;6.656;2022-09-24T09:23:42;16.10;99.90
7894;DHT22;51343;51.396;6.656;2022-09-24T09:26:12;16.20;99.90
7894;DHT22;51343;51.396;6.656;2022-09-24T09:28:38;16.20;99.90
7894;DHT22;51343;51.396;6.656;2022-09-24T09:31:06;16.40;99.90
7894;DHT22;51343;51.396;6.656;2022-09-24T09:33:40;16.20;99.90
7894;DHT22;51343;51.396;6.656;2022-09-24T09:36:18;16.30;99.90
7894;DHT22;51343;51.396;6.656;2022-09-24T09:38:52;16.40;99.90
7894;DHT22;51343;51.396;6.656;2022-09-24T09:41:25;16.40;99.90
7894;DHT22;51343;51.396;6.656;2022-09-24T09:43:55;16.20;99.90
7894;DHT22;51343;51.396;6.656;2022-09-24T09:46:26;16.40;99.90
7894;DHT22;51343;51.396;6.656;2022-09-24T09:48:55;16.50;99.90
7894;DHT22;51343;51.396;6.656;2022-09-24T09:51:25;16.50;99.90
7894;DHT22;51343;51.396;6.656;2022-09-24T09:53:55;16.60;99.90
7894;DHT22;51343;51.396;6.656;2022-09-24T09:56:23;16.80;99.90
